Time;durP1;ratioP1;P1;durP2;ratioP2;P2;SDS_P1;SDS_P2;PMS_P1;PMS_P2;Temp;Humidity;BMP_temperature;BMP_pressure;BME280_temperature;BME280_humidity;BME280_pressure;Samples;Min_cycle;Max_cycle;Signal;HPM_P1;HPM_P2
2023/08/29 00:02:45;;;;;;;;;10.80;10.80;;;;;24.26;100.00;97822.25;6298855;27;96358;-65
2023/08/29 00:05:48;;;;;;;;;12.00;11.00;;;;;24.31;100.00;97822.06;6281629;27;96404;-65
2023/08/29 00:08:51;;;;;;;;;12.00;11.00;;;;;24.31;100.00;97819.28;6300708;27;96381;-64
2023/08/29 00:11:56;;;;;;;;;11.25;11.00;;;;;24.32;100.00;97821.72;6264738;27;96694;-64
2023/08/29 00:14:59;;;;;;;;;13.50;13.00;;;;;24.36;100.00;97841.94;6300652;27;96372;-66
2023/08/29 00:18:03;;;;;;;;;12.00;12.00;;;;;24.43;100.00;97849.66;6282057;27;97259;-65
2023/08/29 00:21:07;;;;;;;;;11.00;11.00;;;;;24.44;100.00;97854.00;6299350;27;96466;-65
2023/08/29 00:24:10;;;;;;;;;10.40;10.40;;;;;24.47;100.00;97878.97;6300432;27;96240;-64
2023/08/29 00:27:14;;;;;;;;;13.00;12.00;;;;;24.29;100.00;97981.34;6300613;27;96343;-65
2023/08/29 00:30:17;;;;;;;;;13.00;11.80;;;;;24.10;100.00;97988.03;6279409;27;96898;-64
2023/08/29 00:33:21;;;;;;;;;15.40;15.00;;;;;24.11;100.00;97997.91;6277249;27;97747;-64
2023/08/29 00:36:25;;;;;;;;;16.40;14.80;;;;;24.03;100.00;98017.25;6256611;27;96728;-64
2023/08/29 00:39:28;;;;;;;;;15.50;14.50;;;;;24.08;100.00;97986.78;6264019;27;96615;-64
2023/08/29 00:42:32;;;;;;;;;17.00;15.00;;;;;24.05;100.00;98004.75;6298812;27;97038;-64
2023/08/29 00:45:38;;;;;;;;;15.00;14.67;;;;;24.08;100.00;97970.25;6298919;27;96398;-65
2023/08/29 00:48:43;;;;;;;;;17.25;15.00;;;;;24.09;100.00;97980.13;6281193;27;96565;-65
2023/08/29 00:51:47;;;;;;;;;15.20;14.80;;;;;24.15;100.00;97946.53;6282056;27;96747;-64
2023/08/29 00:54:50;;;;;;;;;16.00;15.50;;;;;24.14;100.00;97942.16;6283888;27;96792;-66
2023/08/29 00:57:56;;;;;;;;;17.40;16.00;;;;;24.16;100.00;97930.84;6300286;27;97786;-65
2023/08/29 01:01:00;;;;;;;;;15.60;14.00;;;;;24.16;100.00;97922.56;6299209;27;96461;-64
2023/08/29 01:04:09;;;;;;;;;19.20;15.20;;;;;24.15;100.00;97935.53;6267723;27;96333;-66
2023/08/29 01:07:13;;;;;;;;;14.60;13.60;;;;;24.04;100.00;97917.00;6256227;27;99391;-65
2023/08/29 01:10:17;;;;;;;;;19.80;16.00;;;;;24.21;100.00;97943.63;6255185;27;98669;-65
2023/08/29 01:13:40;;;;;;;;;20.00;17.00;;;;;24.23;100.00;97947.69;6254689;27;96395;-65
2023/08/29 01:16:50;;;;;;;;;19.40;16.00;;;;;24.19;100.00;97948.69;6274071;27;96951;-64
2023/08/29 01:19:55;;;;;;;;;23.60;20.20;;;;;24.17;100.00;97969.09;6254295;27;97502;-64
2023/08/29 01:23:08;;;;;;;;;21.40;18.00;;;;;24.08;100.00;97946.28;6273513;27;96347;-65
2023/08/29 01:26:19;;;;;;;;;22.33;21.00;;;;;24.02;100.00;97944.03;6243210;27;97060;-65
2023/08/29 01:29:22;;;;;;;;;20.00;20.00;;;;;23.97;100.00;97952.47;6258265;27;96323;-64
2023/08/29 01:32:26;;;;;;;;;23.75;21.75;;;;;23.79;100.00;97948.19;6273992;27;96394;-66
2023/08/29 01:35:29;;;;;;;;;20.00;19.00;;;;;23.72;100.00;97945.94;6263862;27;96267;-64
2023/08/29 01:38:33;;;;;;;;;25.00;21.00;;;;;23.66;100.00;97961.84;6273305;27;97038;-65
2023/08/29 01:41:37;;;;;;;;;21.00;17.50;;;;;23.61;100.00;97962.00;6271184;27;96988;-65
2023/08/29 01:44:41;;;;;;;;;18.00;16.50;;;;;23.49;100.00;97956.41;6254134;27;96315;-64
2023/08/29 01:47:44;;;;;;;;;21.00;18.00;;;;;23.43;100.00;97965.13;6271799;27;96856;-65
2023/08/29 01:50:48;;;;;;;;;19.67;18.00;;;;;23.37;100.00;97977.41;6271632;27;96487;-64
2023/08/29 01:53:51;;;;;;;;;16.80;15.80;;;;;23.37;100.00;97969.16;6252770;27;98454;-64
2023/08/29 01:56:59;;;;;;;;;20.00;18.00;;;;;23.30;100.00;97965.00;6252855;27;96640;-64
2023/08/29 02:00:04;;;;;;;;;20.00;19.00;;;;;23.31;100.00;97974.84;6252501;27;96397;-64
2023/08/29 02:03:16;;;;;;;;;20.40;18.00;;;;;23.40;100.00;97977.59;6280365;27;96744;-65
2023/08/29 02:06:21;;;;;;;;;19.00;17.00;;;;;23.42;100.00;97969.81;6276367;27;96815;-64
2023/08/29 02:09:24;;;;;;;;;16.50;16.00;;;;;23.41;100.00;97972.91;6248997;27;96315;-64
2023/08/29 02:12:29;;;;;;;;;16.00;15.00;;;;;23.44;100.00;97983.25;6249221;27;96725;-64
2023/08/29 02:15:32;;;;;;;;;14.75;13.00;;;;;23.40;100.00;97979.53;6289888;27;96860;-64
2023/08/29 02:18:35;;;;;;;;;13.00;11.67;;;;;23.36;100.00;97965.59;6248517;27;97250;-64
2023/08/29 02:21:38;;;;;;;;;12.60;10.60;;;;;23.32;100.00;97953.66;6267100;27;96389;-64
2023/08/29 02:24:42;;;;;;;;;11.00;10.00;;;;;23.21;100.00;97961.44;6288941;27;96996;-65
2023/08/29 02:27:47;;;;;;;;;10.00;9.40;;;;;23.15;100.00;97972.94;6240099;27;96769;-64
2023/08/29 02:30:50;;;;;;;;;8.20;7.60;;;;;23.03;100.00;97959.84;6258921;27;96755;-65
2023/08/29 02:33:55;;;;;;;;;8.00;8.00;;;;;23.10;100.00;97964.88;6295315;27;96303;-65
2023/08/29 02:36:58;;;;;;;;;6.00;6.00;;;;;22.93;100.00;97948.38;6291069;27;96980;-66
2023/08/29 02:40:07;;;;;;;;;8.00;8.00;;;;;22.90;100.00;97955.34;6260502;27;96705;-64
2023/08/29 02:43:11;;;;;;;;;8.50;8.50;;;;;22.83;100.00;97953.06;6251209;27;96541;-64
2023/08/29 02:46:14;;;;;;;;;6.20;5.20;;;;;22.75;100.00;97975.06;6273121;27;96395;-65
2023/08/29 02:49:18;;;;;;;;;8.80;8.80;;;;;22.64;100.00;97963.56;6282810;27;96404;-64
2023/08/29 02:52:21;;;;;;;;;7.50;7.50;;;;;22.57;100.00;97965.97;6267328;27;96306;-66
2023/08/29 02:55:24;;;;;;;;;10.40;10.00;;;;;22.59;100.00;97971.13;6290693;27;97581;-65
2023/08/29 02:58:29;;;;;;;;;12.40;11.40;;;;;22.60;100.00;97973.56;6292212;27;96875;-65
2023/08/29 03:01:32;;;;;;;;;13.00;12.60;;;;;22.59;100.00;97982.13;6247518;27;98418;-64
2023/08/29 03:04:36;;;;;;;;;14.00;12.40;;;;;22.52;100.00;97982.63;6272748;27;97632;-66
2023/08/29 03:07:39;;;;;;;;;12.75;11.00;;;;;22.54;100.00;97971.28;6260790;27;96937;-64
2023/08/29 03:10:42;;;;;;;;;12.00;11.00;;;;;22.64;100.00;97971.78;6252969;27;96517;-64
2023/08/29 03:13:47;;;;;;;;;15.00;14.00;;;;;22.71;100.00;97965.84;6279227;27;96891;-65
2023/08/29 03:16:53;;;;;;;;;11.00;10.20;;;;;22.68;100.00;97972.75;6277424;27;96252;-64
2023/08/29 03:19:56;;;;;;;;;11.00;10.00;;;;;22.63;100.00;97974.84;6271872;27;97390;-65
2023/08/29 03:22:59;;;;;;;;;12.00;10.00;;;;;22.52;100.00;97976.31;6254160;27;97139;-64
2023/08/29 03:26:03;;;;;;;;;11.40;10.00;;;;;22.57;100.00;97987.97;6278483;27;96352;-66
2023/08/29 03:29:08;;;;;;;;;11.25;10.00;;;;;22.65;100.00;97989.09;6275782;27;98773;-65
2023/08/29 03:32:11;;;;;;;;;11.40;10.00;;;;;22.69;100.00;97995.56;6283849;27;96591;-64
2023/08/29 03:35:15;;;;;;;;;11.00;9.60;;;;;22.71;100.00;97982.34;6276318;27;96646;-65
2023/08/29 03:38:18;;;;;;;;;10.75;9.25;;;;;22.75;100.00;97988.81;6294136;27;96300;-65
2023/08/29 03:41:21;;;;;;;;;11.00;10.50;;;;;22.78;100.00;97990.91;6275951;27;98902;-64
2023/08/29 03:44:26;;;;;;;;;12.00;10.00;;;;;22.78;100.00;97986.22;6277601;27;96334;-64
2023/08/29 03:47:29;;;;;;;;;11.00;11.00;;;;;22.80;100.00;97991.41;6262879;27;96834;-65
2023/08/29 03:50:32;;;;;;;;;9.00;9.00;;;;;22.78;100.00;97986.22;6242257;27;98444;-65
2023/08/29 03:53:36;;;;;;;;;9.40;9.40;;;;;22.79;100.00;97992.50;6270935;27;97527;-65
2023/08/29 03:56:43;;;;;;;;;9.20;7.00;;;;;22.76;100.00;98004.16;6235692;27;97369;-65
2023/08/29 03:59:48;;;;;;;;;10.00;8.20;;;;;22.72;100.00;98003.19;6281684;27;96115;-64
2023/08/29 04:02:53;;;;;;;;;12.00;11.00;;;;;22.73;100.00;97982.81;6268475;27;97517;-64
2023/08/29 04:05:56;;;;;;;;;11.00;8.00;;;;;22.63;100.00;97975.66;6271836;27;96256;-64
2023/08/29 04:09:00;;;;;;;;;9.00;8.00;;;;;22.66;100.00;97983.28;6274390;27;96367;-66
2023/08/29 04:12:04;;;;;;;;;8.25;7.00;;;;;22.68;100.00;97980.19;6253856;27;96296;-64
2023/08/29 04:15:12;;;;;;;;;9.00;8.50;;;;;22.69;100.00;97999.09;6253039;27;96725;-64
2023/08/29 04:18:17;;;;;;;;;10.00;7.60;;;;;22.74;100.00;98011.91;6269636;27;96628;-65
2023/08/29 04:21:21;;;;;;;;;8.25;8.00;;;;;22.69;100.00;98003.78;6251336;27;96842;-64
2023/08/29 04:24:24;;;;;;;;;8.20;8.00;;;;;22.66;100.00;98002.50;6251015;27;98424;-65
2023/08/29 04:27:27;;;;;;;;;6.00;6.00;;;;;22.67;100.00;98009.63;6269188;27;96353;-64
2023/08/29 04:30:32;;;;;;;;;8.00;7.00;;;;;22.61;100.00;98005.41;6251833;27;96385;-67
2023/08/29 04:33:35;;;;;;;;;6.60;6.00;;;;;22.65;100.00;97991.84;6266366;27;96787;-64
2023/08/29 04:36:38;;;;;;;;;5.00;5.00;;;;;22.73;100.00;97985.56;6264101;27;96763;-65
2023/08/29 04:39:41;;;;;;;;;7.00;7.00;;;;;22.87;100.00;97967.00;6268565;27;96719;-65
2023/08/29 04:42:45;;;;;;;;;7.00;7.00;;;;;22.89;100.00;97965.53;6250954;27;97267;-64
2023/08/29 04:45:51;;;;;;;;;6.40;6.00;;;;;22.91;100.00;97973.47;6235898;27;96944;-65
2023/08/29 04:48:54;;;;;;;;;6.00;5.80;;;;;22.94;100.00;97972.81;6268350;27;96870;-64
2023/08/29 04:51:57;;;;;;;;;5.00;5.00;;;;;22.99;100.00;97967.13;6267194;27;96341;-66
2023/08/29 04:55:00;;;;;;;;;7.00;6.00;;;;;23.03;100.00;97964.53;6245660;27;96845;-65
2023/08/29 04:58:04;;;;;;;;;5.50;5.00;;;;;23.07;100.00;97960.81;6251084;27;96373;-66
2023/08/29 05:01:09;;;;;;;;;5.00;4.00;;;;;23.12;100.00;97935.91;6264810;27;96965;-66
2023/08/29 05:04:13;;;;;;;;;4.80;4.80;;;;;23.18;100.00;97931.84;6277841;27;96406;-65
2023/08/29 05:07:16;;;;;;;;;4.40;4.00;;;;;23.24;100.00;97933.31;6253642;27;96320;-65
2023/08/29 05:10:19;;;;;;;;;6.00;6.00;;;;;23.22;100.00;97932.81;6255538;27;96300;-65
2023/08/29 05:13:22;;;;;;;;;6.00;5.00;;;;;23.25;100.00;97932.16;6255108;27;96355;-65
2023/08/29 05:16:27;;;;;;;;;5.00;5.00;;;;;23.26;100.00;97943.97;6253214;27;98491;-65
2023/08/29 05:19:30;;;;;;;;;6.00;5.00;;;;;23.27;100.00;97929.88;6251375;27;96388;-66
2023/08/29 05:22:33;;;;;;;;;6.00;6.00;;;;;23.31;100.00;97917.09;6251984;27;96977;-64
2023/08/29 05:25:37;;;;;;;;;5.00;4.00;;;;;23.38;100.00;97900.09;6252493;27;96543;-65
2023/08/29 05:28:40;;;;;;;;;6.00;6.00;;;;;23.53;100.00;97888.59;6270311;27;96381;-66
2023/08/29 05:31:45;;;;;;;;;5.00;5.00;;;;;23.60;100.00;97888.06;6235610;27;98986;-66
2023/08/29 05:34:48;;;;;;;;;5.20;4.20;;;;;23.67;100.00;97891.09;6237138;27;98377;-64
2023/08/29 05:37:51;;;;;;;;;4.00;4.00;;;;;23.84;100.00;97876.47;6269350;27;96357;-64
2023/08/29 05:40:56;;;;;;;;;4.00;4.00;;;;;23.98;100.00;97875.06;6270917;27;96934;-65
2023/08/29 05:43:59;;;;;;;;;5.00;5.00;;;;;24.15;100.00;97877.69;6251990;27;97088;-66
2023/08/29 05:47:04;;;;;;;;;5.40;4.60;;;;;24.36;100.00;97860.41;6267906;27;97102;-65
2023/08/29 05:50:08;;;;;;;;;6.00;5.00;;;;;24.63;100.00;97857.09;6251227;27;97279;-65
2023/08/29 05:53:11;;;;;;;;;4.80;4.00;;;;;24.89;100.00;97849.41;6245550;27;96332;-66
2023/08/29 05:56:14;;;;;;;;;5.00;4.00;;;;;25.12;100.00;97832.47;6264726;27;97116;-65
2023/08/29 05:59:18;;;;;;;;;5.00;5.00;;;;;25.36;100.00;97838.03;6264210;27;97609;-66
2023/08/29 06:02:22;;;;;;;;;5.00;4.00;;;;;25.63;100.00;97831.03;6228447;27;99799;-65
2023/08/29 06:05:26;;;;;;;;;5.00;4.00;;;;;25.83;100.00;97825.41;6269792;27;97110;-66
2023/08/29 06:08:29;;;;;;;;;5.00;4.00;;;;;25.93;100.00;97820.53;6268302;27;96350;-66
2023/08/29 06:11:32;;;;;;;;;5.00;4.40;;;;;26.09;100.00;97826.97;6270146;27;96758;-65
2023/08/29 06:14:36;;;;;;;;;5.00;4.00;;;;;26.23;100.00;97831.00;6252385;27;96835;-66
2023/08/29 06:17:40;;;;;;;;;5.00;4.50;;;;;26.30;100.00;97827.63;6238236;27;98609;-65
2023/08/29 06:20:44;;;;;;;;;4.00;3.00;;;;;26.40;100.00;97824.38;6251753;27;96783;-66
2023/08/29 06:23:47;;;;;;;;;3.00;3.00;;;;;26.52;100.00;97837.34;6269879;27;96645;-65
2023/08/29 06:26:50;;;;;;;;;5.00;5.00;;;;;26.56;100.00;97839.06;6269092;27;96342;-66
2023/08/29 06:29:53;;;;;;;;;5.00;5.00;;;;;26.63;100.00;97827.41;6249547;27;96422;-67
2023/08/29 06:32:58;;;;;;;;;6.00;5.00;;;;;26.73;100.00;97802.78;6232592;27;99040;-66
2023/08/29 06:36:01;;;;;;;;;6.00;5.50;;;;;26.99;100.00;97798.75;6268539;27;96309;-66
2023/08/29 06:39:05;;;;;;;;;4.40;4.00;;;;;27.25;100.00;97789.94;6249863;27;96833;-65
2023/08/29 06:42:08;;;;;;;;;5.25;4.25;;;;;27.53;100.00;97783.16;6249820;27;96467;-66
2023/08/29 06:45:11;;;;;;;;;5.00;5.00;;;;;27.85;100.00;97777.59;6266985;27;96900;-65
2023/08/29 06:48:16;;;;;;;;;4.00;4.00;;;;;27.96;100.00;97762.78;6246288;27;98650;-65
2023/08/29 06:51:19;;;;;;;;;5.00;5.00;;;;;27.87;100.00;97745.56;6245561;27;99642;-65
2023/08/29 06:54:22;;;;;;;;;5.00;5.00;;;;;27.99;100.00;97739.09;6245096;27;97665;-66
2023/08/29 06:57:26;;;;;;;;;6.00;5.00;;;;;28.17;100.00;97728.41;6261904;27;96347;-65
2023/08/29 07:00:29;;;;;;;;;5.00;5.00;;;;;28.38;100.00;97723.31;6245322;27;96412;-65
2023/08/29 07:03:33;;;;;;;;;5.00;5.00;;;;;28.42;100.00;97711.13;6249565;27;96385;-66
2023/08/29 07:06:37;;;;;;;;;4.00;4.00;;;;;28.62;100.00;97711.06;6282350;27;96467;-65
2023/08/29 07:09:40;;;;;;;;;6.00;6.00;;;;;28.89;100.00;97712.78;6283220;27;96399;-65
2023/08/29 07:12:43;;;;;;;;;5.00;5.00;;;;;29.32;100.00;97736.53;6274965;27;96629;-65
2023/08/29 07:15:47;;;;;;;;;5.00;5.00;;;;;29.67;100.00;97725.13;6277676;27;96326;-65
2023/08/29 07:18:51;;;;;;;;;4.00;4.00;;;;;29.84;100.00;97710.72;6277175;27;97024;-65
2023/08/29 07:21:55;;;;;;;;;6.00;4.67;;;;;30.24;100.00;97709.25;6274613;27;96477;-65
2023/08/29 07:25:03;;;;;;;;;6.00;5.20;;;;;30.50;100.00;97707.19;6255615;27;96686;-66
2023/08/29 07:28:07;;;;;;;;;6.00;5.00;;;;;30.59;100.00;97712.47;6256360;27;97863;-65
2023/08/29 07:31:11;;;;;;;;;5.20;5.20;;;;;30.78;100.00;97717.03;6273259;27;96370;-65
2023/08/29 07:34:16;;;;;;;;;4.40;4.40;;;;;31.17;100.00;97709.84;6274756;27;96375;-65
2023/08/29 07:37:19;;;;;;;;;5.00;4.20;;;;;31.33;100.00;97713.13;6258159;27;98404;-65
2023/08/29 07:40:22;;;;;;;;;3.00;3.00;;;;;31.59;100.00;97689.88;6277736;27;96358;-65
2023/08/29 07:43:26;;;;;;;;;5.00;5.00;;;;;31.92;100.00;97700.00;6277919;27;96358;-65
2023/08/29 07:46:29;;;;;;;;;4.00;3.80;;;;;31.95;100.00;97688.06;6264890;27;96736;-66
2023/08/29 07:49:34;;;;;;;;;4.00;4.00;;;;;32.07;100.00;97687.72;6277625;27;97177;-66
2023/08/29 07:52:37;;;;;;;;;4.00;3.20;;;;;32.23;100.00;97695.78;6277930;27;96284;-66
2023/08/29 07:55:44;;;;;;;;;5.60;5.00;;;;;32.48;100.00;97691.06;6269335;27;96717;-66
2023/08/29 07:58:49;;;;;;;;;6.00;6.00;;;;;32.33;100.00;97705.38;6284981;27;96342;-65
2023/08/29 08:01:53;;;;;;;;;6.00;6.00;;;;;32.06;100.00;97694.47;6279881;27;96379;-66
2023/08/29 08:04:58;;;;;;;;;5.00;5.00;;;;;32.36;100.00;97694.22;6275875;27;96916;-66
2023/08/29 08:08:01;;;;;;;;;3.80;3.80;;;;;32.76;100.00;97692.34;6265841;27;96492;-66
2023/08/29 08:11:04;;;;;;;;;4.00;4.00;;;;;32.88;100.00;97692.78;6265465;27;96377;-66
2023/08/29 08:14:08;;;;;;;;;5.50;4.50;;;;;33.09;100.00;97678.78;6263125;27;96367;-67
2023/08/29 08:17:11;;;;;;;;;5.00;5.00;;;;;33.48;100.00;97680.78;6229405;27;97469;-66
2023/08/29 08:20:18;;;;;;;;;3.00;3.00;;;;;33.83;100.00;97679.94;6264986;27;96388;-67
2023/08/29 08:23:21;;;;;;;;;4.00;3.00;;;;;34.12;100.00;97681.41;6262386;27;96431;-67
2023/08/29 08:26:25;;;;;;;;;4.00;4.00;;;;;34.24;100.00;97683.00;6226823;27;97313;-67
2023/08/29 08:29:30;;;;;;;;;3.00;3.00;;;;;34.43;100.00;97682.50;6252735;27;96783;-67
2023/08/29 08:32:33;;;;;;;;;4.00;4.00;;;;;34.31;100.00;97669.75;6275744;27;97101;-67
2023/08/29 08:35:38;;;;;;;;;3.00;3.00;;;;;34.08;100.00;97675.03;6264038;27;96402;-67
2023/08/29 08:38:59;;;;;;;;;3.20;3.20;;;;;33.61;100.00;97664.41;6280929;27;96905;-66
2023/08/29 08:42:03;;;;;;;;;4.50;4.00;;;;;33.83;100.00;97644.38;6247507;27;96520;-67
2023/08/29 08:45:09;;;;;;;;;3.00;3.00;;;;;33.98;100.00;97649.91;6265781;27;96178;-67
2023/08/29 08:48:12;;;;;;;;;5.00;5.00;;;;;34.02;100.00;97653.47;6265223;27;96440;-67
2023/08/29 08:51:22;;;;;;;;;6.00;6.00;;;;;34.09;100.00;97659.06;6246178;27;97896;-66
2023/08/29 08:54:25;;;;;;;;;5.00;5.00;;;;;33.87;100.00;97655.53;6264514;27;96312;-67
2023/08/29 08:57:28;;;;;;;;;5.50;5.00;;;;;33.96;100.00;97653.13;6265365;27;96565;-67
2023/08/29 09:00:33;;;;;;;;;4.00;4.00;;;;;34.08;100.00;97649.88;6265185;27;96570;-66
2023/08/29 09:03:38;;;;;;;;;5.00;5.00;;;;;34.19;100.00;97652.66;6264016;27;96769;-66
2023/08/29 09:06:43;;;;;;;;;4.00;4.00;;;;;34.23;100.00;97636.63;6264951;27;96124;-67
2023/08/29 09:10:07;;;;;;;;;3.00;3.00;;;;;34.45;100.00;97626.13;6265141;27;96319;-66
2023/08/29 09:13:16;;;;;;;;;5.00;4.00;;;;;34.64;100.00;97631.97;6247375;27;96937;-67
2023/08/29 09:16:21;;;;;;;;;3.00;3.00;;;;;34.83;100.00;97624.25;6247553;27;96520;-66
2023/08/29 09:19:26;;;;;;;;;4.00;4.00;;;;;35.10;100.00;97617.59;6265031;27;96301;-67
2023/08/29 09:22:31;;;;;;;;;3.00;3.00;;;;;35.61;100.00;97607.50;6246773;27;96350;-67
2023/08/29 09:25:34;;;;;;;;;4.00;4.00;;;;;35.98;100.00;97612.28;6265150;27;96479;-67
2023/08/29 09:28:38;;;;;;;;;4.00;4.00;;;;;36.28;100.00;97611.50;6264510;27;96928;-66
2023/08/29 09:31:41;;;;;;;;;3.00;3.00;;;;;36.22;100.00;97611.16;6264522;27;96483;-67
2023/08/29 09:34:44;;;;;;;;;3.00;3.00;;;;;36.10;100.00;97610.94;6264967;27;96383;-67
2023/08/29 09:37:52;;;;;;;;;4.80;4.00;;;;;36.15;100.00;97619.69;6245652;27;97217;-67
2023/08/29 09:40:55;;;;;;;;;4.00;4.00;;;;;36.30;100.00;97628.72;6238627;28;96335;-67
2023/08/29 09:43:59;;;;;;;;;6.00;4.00;;;;;35.89;100.00;97626.81;6239352;28;96413;-67
2023/08/29 09:47:02;;;;;;;;;5.00;5.00;;;;;35.76;100.00;97614.56;6240050;28;96309;-67
2023/08/29 09:50:06;;;;;;;;;3.00;2.00;;;;;35.66;100.00;97623.09;6239479;28;96350;-67
2023/08/29 09:53:15;;;;;;;;;5.00;4.60;;;;;35.50;100.00;97634.84;6237769;27;97033;-67
2023/08/29 09:56:22;;;;;;;;;5.00;5.00;;;;;35.17;100.00;97626.00;6262966;27;96810;-67
2023/08/29 09:59:27;;;;;;;;;3.60;3.60;;;;;35.05;100.00;97640.47;6263403;27;96311;-67
2023/08/29 10:02:31;;;;;;;;;5.00;5.00;;;;;34.80;100.00;97636.31;6263395;27;96913;-67
2023/08/29 10:05:36;;;;;;;;;4.75;4.00;;;;;34.25;100.00;97642.63;6228562;27;96667;-67
2023/08/29 10:08:45;;;;;;;;;5.00;4.00;;;;;34.05;100.00;97650.69;6263749;27;96577;-66
2023/08/29 10:11:50;;;;;;;;;6.00;4.50;;;;;33.97;100.00;97651.09;6262422;27;97098;-67
2023/08/29 10:14:58;;;;;;;;;4.00;4.00;;;;;33.99;100.00;97657.91;6264293;27;96454;-67
2023/08/29 10:18:01;;;;;;;;;6.00;5.40;;;;;34.01;100.00;97666.69;6263683;27;96362;-67
2023/08/29 10:21:05;;;;;;;;;4.50;4.50;;;;;34.08;100.00;97654.66;6263363;27;96330;-67
2023/08/29 10:24:12;;;;;;;;;4.00;3.20;;;;;34.46;100.00;97647.28;6260870;27;96929;-67
2023/08/29 10:27:16;;;;;;;;;5.50;4.50;;;;;34.89;100.00;97640.22;6264116;27;96342;-67
2023/08/29 10:30:19;;;;;;;;;4.00;4.00;;;;;35.16;100.00;97638.38;6263592;27;96512;-67
2023/08/29 10:33:22;;;;;;;;;6.00;6.00;;;;;35.66;100.00;97639.91;6244506;27;98454;-67
2023/08/29 10:36:26;;;;;;;;;5.00;5.00;;;;;36.11;100.00;97635.75;6219361;28;96755;-67
2023/08/29 10:39:30;;;;;;;;;4.00;4.00;;;;;36.37;100.00;97642.63;6238840;28;96403;-67
2023/08/29 10:42:49;;;;;;;;;5.00;4.75;;;;;36.25;100.00;97634.81;6237997;28;96417;-67
2023/08/29 10:45:57;;;;;;;;;5.20;4.20;;;;;36.37;100.00;97648.25;6255480;27;96424;-67
2023/08/29 10:49:00;;;;;;;;;4.00;4.00;;;;;36.00;100.00;97646.31;6227944;27;98445;-67
2023/08/29 10:52:13;;;;;;;;;3.75;3.25;;;;;35.84;100.00;97648.91;6260631;27;96464;-67
2023/08/29 10:55:23;;;;;;;;;5.00;4.00;;;;;35.83;100.00;97645.31;6258521;27;96393;-67
2023/08/29 10:58:37;;;;;;;;;6.00;6.00;;;;;36.07;100.00;97648.25;6259852;27;96897;-67
2023/08/29 11:01:40;;;;;;;;;5.40;5.40;;;;;36.06;100.00;97644.66;6260161;27;96524;-67
2023/08/29 11:04:43;;;;;;;;;7.00;5.00;;;;;36.09;100.00;97637.38;6269851;27;96358;-67
2023/08/29 11:08:19;;;;;;;;;5.40;5.40;;;;;36.48;100.00;97630.03;6259347;27;98455;-67
2023/08/29 11:11:24;;;;;;;;;6.60;6.00;;;;;37.04;100.00;97632.41;6255536;27;97532;-67
2023/08/29 11:14:51;;;;;;;;;4.20;4.20;;;;;37.11;100.00;97635.91;6246902;27;96873;-67
2023/08/29 11:18:19;;;;;;;;;4.00;4.00;;;;;36.72;100.00;97642.13;6262488;27;96306;-67
2023/08/29 11:21:22;;;;;;;;;3.00;3.00;;;;;36.30;100.00;97632.31;6243345;27;99064;-67
2023/08/29 11:24:26;;;;;;;;;5.00;5.00;;;;;35.78;100.00;97639.38;6264083;27;96401;-67
2023/08/29 11:27:37;;;;;;;;;5.00;4.00;;;;;35.32;100.00;97642.66;6243181;27;96883;-67
2023/08/29 11:30:40;;;;;;;;;5.20;5.20;;;;;34.73;100.00;97646.34;6261734;27;96181;-67
2023/08/29 11:33:48;;;;;;;;;7.00;5.60;;;;;34.26;100.00;97659.00;6262436;27;96382;-67
2023/08/29 11:36:52;;;;;;;;;6.40;6.00;;;;;33.65;100.00;97665.19;6246096;27;98851;-65
2023/08/29 11:39:56;;;;;;;;;4.00;4.00;;;;;33.13;100.00;97675.22;6227033;27;96901;-67
2023/08/29 11:43:01;;;;;;;;;4.75;4.75;;;;;32.53;100.00;97679.53;6239033;27;96644;-67
2023/08/29 11:46:33;;;;;;;;;6.00;5.40;;;;;31.81;100.00;97638.63;6250111;27;97538;-67
2023/08/29 11:49:41;;;;;;;;;5.00;5.00;;;;;31.73;100.00;97600.78;6241064;27;96688;-67
2023/08/29 11:52:44;;;;;;;;;5.00;4.20;;;;;31.55;100.00;97599.88;6218295;28;96854;-67
2023/08/29 11:55:48;;;;;;;;;8.00;6.00;;;;;31.41;100.00;97647.16;6253690;27;97297;-67
2023/08/29 11:58:56;;;;;;;;;6.00;6.00;;;;;31.32;100.00;97652.28;6239132;27;96905;-68
2023/08/29 12:01:59;;;;;;;;;7.00;6.00;;;;;30.84;100.00;97643.13;6236391;27;97753;-68
2023/08/29 12:05:07;;;;;;;;;6.40;5.60;;;;;30.72;100.00;97649.00;6261266;27;96302;-68
2023/08/29 12:08:10;;;;;;;;;6.00;5.60;;;;;30.57;100.00;97673.09;6224896;27;96735;-68
2023/08/29 12:11:16;;;;;;;;;5.00;4.75;;;;;30.32;100.00;97670.03;6239242;27;96919;-67
2023/08/29 12:14:21;;;;;;;;;6.40;6.00;;;;;30.12;100.00;97674.97;6260251;27;96355;-67
2023/08/29 12:17:38;;;;;;;;;5.00;5.00;;;;;30.01;100.00;97674.03;6238095;27;96393;-68
2023/08/29 12:20:42;;;;;;;;;7.00;5.80;;;;;30.08;100.00;97662.19;6253566;27;96542;-67
2023/08/29 12:23:46;;;;;;;;;6.00;5.60;;;;;30.20;100.00;97647.25;6253744;27;96315;-68
2023/08/29 12:26:49;;;;;;;;;6.00;6.00;;;;;30.52;100.00;97656.75;6251363;27;96407;-67
2023/08/29 12:29:55;;;;;;;;;7.00;7.00;;;;;30.66;100.00;97650.50;6263646;27;96311;-67
2023/08/29 12:33:05;;;;;;;;;4.60;4.00;;;;;30.70;100.00;97652.16;6244286;27;96787;-67
2023/08/29 12:36:09;;;;;;;;;5.60;5.20;;;;;30.76;100.00;97645.06;6246107;27;97571;-67
2023/08/29 12:39:12;;;;;;;;;7.00;7.00;;;;;30.76;100.00;97642.28;6243853;27;97172;-68
2023/08/29 12:42:18;;;;;;;;;5.40;5.40;;;;;30.97;100.00;97644.44;6243740;27;98405;-68
2023/08/29 12:45:23;;;;;;;;;6.00;6.00;;;;;31.05;100.00;97657.25;6230697;27;96906;-67
2023/08/29 12:48:26;;;;;;;;;8.00;7.33;;;;;31.21;100.00;97643.84;6255931;27;97211;-67
2023/08/29 12:51:31;;;;;;;;;7.00;6.00;;;;;31.47;100.00;97637.25;6247143;27;98466;-68
2023/08/29 12:54:35;;;;;;;;;7.40;7.00;;;;;31.82;100.00;97634.66;6239735;27;96495;-67
2023/08/29 12:57:38;;;;;;;;;7.00;7.00;;;;;32.18;100.00;97615.28;6250711;27;96852;-67
2023/08/29 13:00:43;;;;;;;;;7.00;6.00;;;;;32.47;100.00;97621.72;6257889;27;96761;-67
2023/08/29 13:03:47;;;;;;;;;7.40;7.00;;;;;32.65;100.00;97620.56;6257945;27;96696;-67
2023/08/29 13:06:50;;;;;;;;;6.00;5.00;;;;;32.90;100.00;97615.00;6246524;27;97021;-67
2023/08/29 13:09:54;;;;;;;;;6.80;5.80;;;;;33.41;100.00;97633.31;6263218;27;96815;-67
2023/08/29 13:12:58;;;;;;;;;6.00;6.00;;;;;33.45;100.00;97608.94;6242273;27;98462;-67
2023/08/29 13:16:03;;;;;;;;;6.60;6.40;;;;;33.55;100.00;97604.53;6240293;27;98936;-67
2023/08/29 13:19:06;;;;;;;;;7.60;7.20;;;;;33.50;100.00;97600.16;6264153;27;97660;-67
2023/08/29 13:22:10;;;;;;;;;6.25;5.75;;;;;33.39;100.00;97599.38;6243011;27;96783;-67
2023/08/29 13:25:14;;;;;;;;;10.00;8.00;;;;;33.26;100.00;97609.41;6259621;27;97624;-67
2023/08/29 13:28:17;;;;;;;;;6.00;5.20;;;;;33.11;100.00;97603.00;6240414;27;96442;-67
2023/08/29 13:31:23;;;;;;;;;7.00;6.00;;;;;33.05;100.00;97582.25;6261781;27;97019;-68
2023/08/29 13:34:27;;;;;;;;;8.00;8.00;;;;;33.01;100.00;97598.22;6248419;27;96446;-67
2023/08/29 13:37:30;;;;;;;;;8.00;6.80;;;;;32.83;100.00;97608.63;6263286;27;96370;-67
2023/08/29 13:40:34;;;;;;;;;8.00;8.00;;;;;32.63;100.00;97624.94;6228378;27;98784;-67
2023/08/29 13:43:37;;;;;;;;;8.00;7.00;;;;;32.40;100.00;97627.31;6263978;27;96372;-67
2023/08/29 13:46:42;;;;;;;;;6.60;6.00;;;;;32.11;100.00;97629.19;6263965;27;96931;-67
2023/08/29 13:49:48;;;;;;;;;8.00;7.00;;;;;31.89;100.00;97600.44;6264311;27;96301;-67
2023/08/29 13:52:51;;;;;;;;;9.00;8.00;;;;;31.67;100.00;97605.13;6244748;27;100144;-67
2023/08/29 13:55:54;;;;;;;;;9.00;8.00;;;;;31.59;100.00;97650.88;6261313;27;96390;-67
2023/08/29 13:58:58;;;;;;;;;10.00;9.00;;;;;31.29;100.00;97681.69;6242543;27;96399;-67
2023/08/29 14:02:02;;;;;;;;;9.00;9.00;;;;;30.98;100.00;97646.81;6240501;27;96563;-67
2023/08/29 14:05:06;;;;;;;;;11.40;10.40;;;;;30.87;100.00;97647.94;6224277;28;98797;-67
2023/08/29 14:08:10;;;;;;;;;9.00;8.00;;;;;30.90;100.00;97655.50;6248862;27;96664;-67
2023/08/29 14:11:14;;;;;;;;;10.00;9.00;;;;;30.88;100.00;97671.78;6263907;27;97319;-67
2023/08/29 14:14:17;;;;;;;;;8.00;7.40;;;;;30.94;100.00;97657.13;6244068;27;97182;-67
2023/08/29 14:17:22;;;;;;;;;9.00;8.40;;;;;31.05;100.00;97657.25;6235998;27;96334;-68